sensor_id;sensor_type;location;lat;lon;timestamp;P1;durP1;ratioP1;P2;durP2;ratioP2
65769;SDS011;52512;47.650;8.578;2022-09-06T00:01:37;4.93;;;3.23;;
65769;SDS011;52512;47.650;8.578;2022-09-06T00:04:03;4.47;;;3.40;;
65769;SDS011;52512;47.650;8.578;2022-09-06T00:06:28;5.17;;;3.27;;
65769;SDS011;52512;47.650;8.578;2022-09-06T00:08:54;4.77;;;4.27;;
65769;SDS011;52512;47.650;8.578;2022-09-06T00:11:20;3.43;;;2.57;;
65769;SDS011;52512;47.650;8.578;2022-09-06T00:13:46;6.17;;;2.90;;
65769;SDS011;52512;47.650;8.578;2022-09-06T00:16:13;9.73;;;2.93;;
65769;SDS011;52512;47.650;8.578;2022-09-06T00:18:41;9.77;;;3.43;;
65769;SDS011;52512;47.650;8.578;2022-09-06T00:21:17;3.87;;;3.07;;
65769;SDS011;52512;47.650;8.578;2022-09-06T00:23:45;5.20;;;2.90;;
65769;SDS011;52512;47.650;8.578;2022-09-06T00:26:11;4.20;;;3.57;;
65769;SDS011;52512;47.650;8.578;2022-09-06T00:28:37;2.97;;;2.67;;
65769;SDS011;52512;47.650;8.578;2022-09-06T00:31:20;3.40;;;2.90;;
65769;SDS011;52512;47.650;8.578;2022-09-06T00:33:47;2.97;;;2.63;;
65769;SDS011;52512;47.650;8.578;2022-09-06T00:36:13;16.70;;;3.37;;
65769;SDS011;52512;47.650;8.578;2022-09-06T00:38:39;6.93;;;3.87;;
65769;SDS011;52512;47.650;8.578;2022-09-06T00:41:06;6.13;;;3.57;;
65769;SDS011;52512;47.650;8.578;2022-09-06T00:43:34;2.33;;;2.10;;
65769;SDS011;52512;47.650;8.578;2022-09-06T00:45:59;3.13;;;2.93;;
65769;SDS011;52512;47.650;8.578;2022-09-06T00:48:26;4.80;;;3.07;;
65769;SDS011;52512;47.650;8.578;2022-09-06T00:50:52;7.20;;;3.23;;
65769;SDS011;52512;47.650;8.578;2022-09-06T00:53:30;3.50;;;3.20;;
65769;SDS011;52512;47.650;8.578;2022-09-06T00:55:56;5.10;;;4.10;;
65769;SDS011;52512;47.650;8.578;2022-09-06T00:58:23;5.83;;;3.43;;
65769;SDS011;52512;47.650;8.578;2022-09-06T01:00:49;5.73;;;3.53;;
65769;SDS011;52512;47.650;8.578;2022-09-06T01:03:15;6.87;;;3.00;;
65769;SDS011;52512;47.650;8.578;2022-09-06T01:11:14;3.60;;;2.87;;
65769;SDS011;52512;47.650;8.578;2022-09-06T01:13:59;4.23;;;3.20;;
65769;SDS011;52512;47.650;8.578;2022-09-06T01:36:31;5.77;;;3.10;;
65769;SDS011;52512;47.650;8.578;2022-09-06T01:39:04;3.90;;;3.20;;
65769;SDS011;52512;47.650;8.578;2022-09-06T01:41:30;6.57;;;3.17;;
65769;SDS011;52512;47.650;8.578;2022-09-06T01:43:57;7.23;;;3.30;;
65769;SDS011;52512;47.650;8.578;2022-09-06T01:52:18;7.27;;;3.20;;
65769;SDS011;52512;47.650;8.578;2022-09-06T02:00:36;5.70;;;3.17;;
65769;SDS011;52512;47.650;8.578;2022-09-06T02:03:18;3.80;;;3.13;;
65769;SDS011;52512;47.650;8.578;2022-09-06T02:05:54;9.00;;;3.63;;
65769;SDS011;52512;47.650;8.578;2022-09-06T02:08:47;4.47;;;3.40;;
65769;SDS011;52512;47.650;8.578;2022-09-06T02:11:27;5.60;;;3.23;;
65769;SDS011;52512;47.650;8.578;2022-09-06T02:14:04;9.90;;;3.80;;
65769;SDS011;52512;47.650;8.578;2022-09-06T02:16:35;3.67;;;3.03;;
65769;SDS011;52512;47.650;8.578;2022-09-06T02:19:05;3.17;;;2.87;;
65769;SDS011;52512;47.650;8.578;2022-09-06T02:21:37;4.30;;;2.87;;
65769;SDS011;52512;47.650;8.578;2022-09-06T02:24:07;3.80;;;3.37;;
65769;SDS011;52512;47.650;8.578;2022-09-06T02:26:37;4.07;;;3.30;;
65769;SDS011;52512;47.650;8.578;2022-09-06T02:29:07;6.50;;;3.60;;
65769;SDS011;52512;47.650;8.578;2022-09-06T02:31:37;5.03;;;3.90;;
65769;SDS011;52512;47.650;8.578;2022-09-06T02:34:09;3.60;;;3.17;;
65769;SDS011;52512;47.650;8.578;2022-09-06T02:36:39;6.77;;;3.70;;
65769;SDS011;52512;47.650;8.578;2022-09-06T02:39:05;3.77;;;3.47;;
65769;SDS011;52512;47.650;8.578;2022-09-06T02:41:31;3.43;;;3.00;;
65769;SDS011;52512;47.650;8.578;2022-09-06T02:43:58;2.70;;;2.50;;
65769;SDS011;52512;47.650;8.578;2022-09-06T02:46:24;3.63;;;2.93;;
65769;SDS011;52512;47.650;8.578;2022-09-06T02:49:12;4.47;;;3.33;;
65769;SDS011;52512;47.650;8.578;2022-09-06T02:51:38;3.87;;;3.47;;
65769;SDS011;52512;47.650;8.578;2022-09-06T02:54:04;3.30;;;2.80;;
65769;SDS011;52512;47.650;8.578;2022-09-06T02:56:32;5.83;;;2.90;;
65769;SDS011;52512;47.650;8.578;2022-09-06T02:59:02;5.90;;;3.17;;
65769;SDS011;52512;47.650;8.578;2022-09-06T03:01:31;5.90;;;3.73;;
65769;SDS011;52512;47.650;8.578;2022-09-06T03:03:57;8.47;;;4.00;;
65769;SDS011;52512;47.650;8.578;2022-09-06T03:06:23;6.07;;;3.13;;
65769;SDS011;52512;47.650;8.578;2022-09-06T03:08:49;5.03;;;3.13;;
65769;SDS011;52512;47.650;8.578;2022-09-06T03:11:15;5.23;;;3.57;;
65769;SDS011;52512;47.650;8.578;2022-09-06T03:13:41;11.07;;;2.93;;
65769;SDS011;52512;47.650;8.578;2022-09-06T03:16:07;5.13;;;3.17;;
65769;SDS011;52512;47.650;8.578;2022-09-06T03:18:33;4.50;;;3.67;;
65769;SDS011;52512;47.650;8.578;2022-09-06T03:20:58;6.30;;;3.80;;
65769;SDS011;52512;47.650;8.578;2022-09-06T03:23:25;3.67;;;3.37;;
65769;SDS011;52512;47.650;8.578;2022-09-06T03:25:52;4.43;;;3.10;;
65769;SDS011;52512;47.650;8.578;2022-09-06T03:28:18;5.10;;;3.67;;
65769;SDS011;52512;47.650;8.578;2022-09-06T03:30:46;3.60;;;2.90;;
65769;SDS011;52512;47.650;8.578;2022-09-06T03:33:14;3.70;;;3.40;;
65769;SDS011;52512;47.650;8.578;2022-09-06T03:35:46;4.83;;;3.27;;
65769;SDS011;52512;47.650;8.578;2022-09-06T03:38:13;4.63;;;3.77;;
65769;SDS011;52512;47.650;8.578;2022-09-06T03:40:39;5.00;;;4.13;;
65769;SDS011;52512;47.650;8.578;2022-09-06T03:43:05;6.20;;;3.57;;
65769;SDS011;52512;47.650;8.578;2022-09-06T03:45:31;3.73;;;3.20;;
65769;SDS011;52512;47.650;8.578;2022-09-06T03:47:59;3.33;;;3.03;;
65769;SDS011;52512;47.650;8.578;2022-09-06T03:50:25;8.23;;;3.80;;
65769;SDS011;52512;47.650;8.578;2022-09-06T03:52:51;3.17;;;2.97;;
65769;SDS011;52512;47.650;8.578;2022-09-06T03:55:16;9.13;;;3.67;;
65769;SDS011;52512;47.650;8.578;2022-09-06T03:57:42;4.50;;;3.13;;
65769;SDS011;52512;47.650;8.578;2022-09-06T04:00:08;7.87;;;3.70;;
65769;SDS011;52512;47.650;8.578;2022-09-06T04:02:34;5.83;;;2.90;;
65769;SDS011;52512;47.650;8.578;2022-09-06T04:04:59;5.30;;;4.50;;
65769;SDS011;52512;47.650;8.578;2022-09-06T04:07:25;23.50;;;3.20;;
65769;SDS011;52512;47.650;8.578;2022-09-06T04:09:50;7.70;;;3.53;;
65769;SDS011;52512;47.650;8.578;2022-09-06T04:12:16;7.60;;;3.30;;
65769;SDS011;52512;47.650;8.578;2022-09-06T04:14:42;4.33;;;3.93;;
65769;SDS011;52512;47.650;8.578;2022-09-06T04:17:09;10.00;;;4.97;;
65769;SDS011;52512;47.650;8.578;2022-09-06T04:19:34;3.10;;;2.90;;
65769;SDS011;52512;47.650;8.578;2022-09-06T04:22:00;6.43;;;4.17;;
65769;SDS011;52512;47.650;8.578;2022-09-06T04:24:26;8.43;;;3.27;;
65769;SDS011;52512;47.650;8.578;2022-09-06T04:26:51;6.10;;;3.80;;
65769;SDS011;52512;47.650;8.578;2022-09-06T04:29:17;4.80;;;3.60;;
65769;SDS011;52512;47.650;8.578;2022-09-06T04:31:42;7.10;;;4.03;;
65769;SDS011;52512;47.650;8.578;2022-09-06T04:34:08;8.70;;;4.03;;
65769;SDS011;52512;47.650;8.578;2022-09-06T04:36:33;3.37;;;2.90;;
65769;SDS011;52512;47.650;8.578;2022-09-06T04:38:59;3.23;;;3.03;;
65769;SDS011;52512;47.650;8.578;2022-09-06T04:41:25;5.53;;;3.70;;
65769;SDS011;52512;47.650;8.578;2022-09-06T04:43:50;6.90;;;3.63;;
65769;SDS011;52512;47.650;8.578;2022-09-06T04:46:23;12.90;;;3.60;;
65769;SDS011;52512;47.650;8.578;2022-09-06T04:48:51;5.13;;;3.73;;
65769;SDS011;52512;47.650;8.578;2022-09-06T04:51:18;6.57;;;3.50;;
65769;SDS011;52512;47.650;8.578;2022-09-06T04:53:44;17.13;;;3.60;;
65769;SDS011;52512;47.650;8.578;2022-09-06T04:56:14;7.03;;;3.53;;
65769;SDS011;52512;47.650;8.578;2022-09-06T04:58:47;3.90;;;3.50;;
65769;SDS011;52512;47.650;8.578;2022-09-06T05:01:13;3.17;;;2.87;;
65769;SDS011;52512;47.650;8.578;2022-09-06T05:03:40;5.63;;;3.93;;
65769;SDS011;52512;47.650;8.578;2022-09-06T05:06:08;3.60;;;2.93;;
65769;SDS011;52512;47.650;8.578;2022-09-06T05:08:36;9.93;;;3.90;;
65769;SDS011;52512;47.650;8.578;2022-09-06T05:11:03;7.73;;;3.50;;
65769;SDS011;52512;47.650;8.578;2022-09-06T05:13:29;5.47;;;3.70;;
65769;SDS011;52512;47.650;8.578;2022-09-06T05:15:55;8.60;;;4.43;;
65769;SDS011;52512;47.650;8.578;2022-09-06T05:18:24;3.30;;;3.00;;
65769;SDS011;52512;47.650;8.578;2022-09-06T05:20:53;7.30;;;4.27;;
65769;SDS011;52512;47.650;8.578;2022-09-06T05:23:19;7.07;;;3.67;;
65769;SDS011;52512;47.650;8.578;2022-09-06T05:25:45;5.67;;;3.80;;
65769;SDS011;52512;47.650;8.578;2022-09-06T05:28:11;7.40;;;3.43;;
65769;SDS011;52512;47.650;8.578;2022-09-06T05:30:37;4.97;;;2.60;;
65769;SDS011;52512;47.650;8.578;2022-09-06T05:33:03;6.70;;;3.77;;
65769;SDS011;52512;47.650;8.578;2022-09-06T05:35:29;3.77;;;3.10;;
65769;SDS011;52512;47.650;8.578;2022-09-06T05:37:55;4.93;;;3.40;;
65769;SDS011;52512;47.650;8.578;2022-09-06T05:40:20;6.17;;;3.77;;
65769;SDS011;52512;47.650;8.578;2022-09-06T05:42:46;7.47;;;3.80;;
65769;SDS011;52512;47.650;8.578;2022-09-06T05:45:12;5.10;;;3.50;;
65769;SDS011;52512;47.650;8.578;2022-09-06T05:47:38;10.50;;;3.60;;
65769;SDS011;52512;47.650;8.578;2022-09-06T05:50:04;4.90;;;3.50;;
65769;SDS011;52512;47.650;8.578;2022-09-06T05:52:31;4.40;;;3.27;;
65769;SDS011;52512;47.650;8.578;2022-09-06T05:54:58;9.87;;;3.90;;
65769;SDS011;52512;47.650;8.578;2022-09-06T05:57:25;5.40;;;3.80;;
65769;SDS011;52512;47.650;8.578;2022-09-06T05:59:50;4.40;;;4.03;;
65769;SDS011;52512;47.650;8.578;2022-09-06T06:02:18;4.87;;;3.90;;
65769;SDS011;52512;47.650;8.578;2022-09-06T06:04:44;12.73;;;3.60;;
65769;SDS011;52512;47.650;8.578;2022-09-06T06:07:10;4.97;;;3.63;;
65769;SDS011;52512;47.650;8.578;2022-09-06T06:09:36;4.93;;;3.47;;
65769;SDS011;52512;47.650;8.578;2022-09-06T06:12:01;9.03;;;4.57;;
65769;SDS011;52512;47.650;8.578;2022-09-06T06:14:27;4.80;;;3.30;;
65769;SDS011;52512;47.650;8.578;2022-09-06T06:16:53;4.83;;;4.20;;
65769;SDS011;52512;47.650;8.578;2022-09-06T06:19:19;5.67;;;4.60;;
65769;SDS011;52512;47.650;8.578;2022-09-06T06:21:44;4.70;;;3.90;;
65769;SDS011;52512;47.650;8.578;2022-09-06T06:24:10;7.40;;;4.30;;
65769;SDS011;52512;47.650;8.578;2022-09-06T06:26:36;8.33;;;4.27;;
65769;SDS011;52512;47.650;8.578;2022-09-06T06:29:02;10.67;;;4.17;;
65769;SDS011;52512;47.650;8.578;2022-09-06T06:31:30;4.13;;;3.10;;
65769;SDS011;52512;47.650;8.578;2022-09-06T06:33:57;11.23;;;4.63;;
65769;SDS011;52512;47.650;8.578;2022-09-06T06:36:24;6.47;;;3.83;;
65769;SDS011;52512;47.650;8.578;2022-09-06T06:38:51;17.40;;;3.80;;
65769;SDS011;52512;47.650;8.578;2022-09-06T06:41:19;6.93;;;3.90;;
65769;SDS011;52512;47.650;8.578;2022-09-06T06:43:49;5.50;;;3.77;;
65769;SDS011;52512;47.650;8.578;2022-09-06T06:46:19;9.20;;;5.10;;
65769;SDS011;52512;47.650;8.578;2022-09-06T06:48:47;7.30;;;4.50;;
65769;SDS011;52512;47.650;8.578;2022-09-06T06:51:13;7.60;;;5.23;;
65769;SDS011;52512;47.650;8.578;2022-09-06T06:53:41;8.10;;;5.40;;
65769;SDS011;52512;47.650;8.578;2022-09-06T06:58:56;8.87;;;5.30;;
65769;SDS011;52512;47.650;8.578;2022-09-06T07:01:24;11.50;;;5.60;;
65769;SDS011;52512;47.650;8.578;2022-09-06T07:03:50;10.93;;;5.23;;
65769;SDS011;52512;47.650;8.578;2022-09-06T07:06:17;7.53;;;5.23;;
65769;SDS011;52512;47.650;8.578;2022-09-06T07:08:44;7.40;;;5.00;;
65769;SDS011;52512;47.650;8.578;2022-09-06T07:11:11;7.10;;;4.33;;
65769;SDS011;52512;47.650;8.578;2022-09-06T07:13:37;8.33;;;5.50;;
65769;SDS011;52512;47.650;8.578;2022-09-06T07:18:40;8.17;;;5.50;;
65769;SDS011;52512;47.650;8.578;2022-09-06T07:21:08;13.03;;;5.33;;
65769;SDS011;52512;47.650;8.578;2022-09-06T07:23:35;7.37;;;5.00;;
65769;SDS011;52512;47.650;8.578;2022-09-06T07:26:00;9.20;;;5.57;;
65769;SDS011;52512;47.650;8.578;2022-09-06T07:28:26;6.07;;;4.70;;
65769;SDS011;52512;47.650;8.578;2022-09-06T07:30:52;11.50;;;5.17;;
65769;SDS011;52512;47.650;8.578;2022-09-06T07:33:21;4.60;;;4.03;;
65769;SDS011;52512;47.650;8.578;2022-09-06T07:35:57;8.53;;;4.47;;
65769;SDS011;52512;47.650;8.578;2022-09-06T07:38:24;11.20;;;5.00;;
65769;SDS011;52512;47.650;8.578;2022-09-06T07:40:53;9.27;;;5.17;;
65769;SDS011;52512;47.650;8.578;2022-09-06T07:43:19;4.80;;;4.37;;
65769;SDS011;52512;47.650;8.578;2022-09-06T07:45:44;9.97;;;5.90;;
65769;SDS011;52512;47.650;8.578;2022-09-06T07:48:10;11.83;;;5.40;;
65769;SDS011;52512;47.650;8.578;2022-09-06T07:50:36;7.80;;;5.43;;
65769;SDS011;52512;47.650;8.578;2022-09-06T07:53:08;5.33;;;4.17;;
65769;SDS011;52512;47.650;8.578;2022-09-06T07:55:34;7.90;;;4.20;;
65769;SDS011;52512;47.650;8.578;2022-09-06T07:57:59;10.97;;;4.03;;
65769;SDS011;52512;47.650;8.578;2022-09-06T08:00:25;6.00;;;4.23;;
65769;SDS011;52512;47.650;8.578;2022-09-06T08:02:51;9.40;;;4.73;;
65769;SDS011;52512;47.650;8.578;2022-09-06T08:05:16;14.20;;;4.13;;
65769;SDS011;52512;47.650;8.578;2022-09-06T08:07:42;11.50;;;5.00;;
65769;SDS011;52512;47.650;8.578;2022-09-06T08:10:08;11.27;;;4.83;;
65769;SDS011;52512;47.650;8.578;2022-09-06T08:12:33;8.77;;;4.20;;
65769;SDS011;52512;47.650;8.578;2022-09-06T08:14:59;7.17;;;4.47;;
65769;SDS011;52512;47.650;8.578;2022-09-06T08:17:25;9.57;;;4.50;;
65769;SDS011;52512;47.650;8.578;2022-09-06T08:19:50;9.73;;;4.03;;
65769;SDS011;52512;47.650;8.578;2022-09-06T08:22:16;4.80;;;3.60;;
65769;SDS011;52512;47.650;8.578;2022-09-06T08:24:41;8.37;;;4.23;;
65769;SDS011;52512;47.650;8.578;2022-09-06T08:27:07;6.60;;;4.27;;
65769;SDS011;52512;47.650;8.578;2022-09-06T08:29:33;9.60;;;3.60;;
65769;SDS011;52512;47.650;8.578;2022-09-06T08:31:59;7.00;;;3.80;;
65769;SDS011;52512;47.650;8.578;2022-09-06T08:34:25;6.30;;;3.90;;
65769;SDS011;52512;47.650;8.578;2022-09-06T08:36:51;15.10;;;4.10;;
65769;SDS011;52512;47.650;8.578;2022-09-06T08:39:16;5.43;;;3.63;;
65769;SDS011;52512;47.650;8.578;2022-09-06T08:41:54;33.13;;;4.20;;
65769;SDS011;52512;47.650;8.578;2022-09-06T08:47:17;6.80;;;4.60;;
65769;SDS011;52512;47.650;8.578;2022-09-06T08:49:46;3.20;;;2.90;;
65769;SDS011;52512;47.650;8.578;2022-09-06T08:52:21;4.90;;;3.27;;
65769;SDS011;52512;47.650;8.578;2022-09-06T09:00:50;14.60;;;3.90;;
65769;SDS011;52512;47.650;8.578;2022-09-06T09:06:01;3.90;;;3.50;;
65769;SDS011;52512;47.650;8.578;2022-09-06T09:08:46;5.90;;;4.00;;
65769;SDS011;52512;47.650;8.578;2022-09-06T09:11:17;6.03;;;3.80;;
65769;SDS011;52512;47.650;8.578;2022-09-06T09:13:52;8.33;;;4.20;;
65769;SDS011;52512;47.650;8.578;2022-09-06T09:16:18;4.77;;;3.73;;
65769;SDS011;52512;47.650;8.578;2022-09-06T09:18:45;9.00;;;4.23;;
65769;SDS011;52512;47.650;8.578;2022-09-06T09:21:14;11.53;;;4.13;;
65769;SDS011;52512;47.650;8.578;2022-09-06T09:23:43;4.53;;;3.57;;
65769;SDS011;52512;47.650;8.578;2022-09-06T09:26:23;5.40;;;3.60;;
65769;SDS011;52512;47.650;8.578;2022-09-06T09:29:11;9.63;;;4.10;;
65769;SDS011;52512;47.650;8.578;2022-09-06T09:34:12;13.40;;;4.30;;
65769;SDS011;52512;47.650;8.578;2022-09-06T09:37:08;16.03;;;4.40;;
65769;SDS011;52512;47.650;8.578;2022-09-06T09:39:45;19.57;;;5.77;;
65769;SDS011;52512;47.650;8.578;2022-09-06T09:42:23;7.33;;;4.20;;
65769;SDS011;52512;47.650;8.578;2022-09-06T09:44:56;5.90;;;3.80;;
65769;SDS011;52512;47.650;8.578;2022-09-06T09:47:23;4.87;;;3.43;;
65769;SDS011;52512;47.650;8.578;2022-09-06T09:49:56;13.43;;;4.70;;
65769;SDS011;52512;47.650;8.578;2022-09-06T09:52:26;17.07;;;4.43;;
65769;SDS011;52512;47.650;8.578;2022-09-06T09:55:00;7.60;;;4.07;;
65769;SDS011;52512;47.650;8.578;2022-09-06T09:57:29;5.60;;;3.90;;
65769;SDS011;52512;47.650;8.578;2022-09-06T10:00:07;3.10;;;2.80;;
65769;SDS011;52512;47.650;8.578;2022-09-06T10:02:38;3.73;;;3.30;;
65769;SDS011;52512;47.650;8.578;2022-09-06T10:05:08;6.00;;;3.80;;
65769;SDS011;52512;47.650;8.578;2022-09-06T10:07:45;8.83;;;3.87;;
65769;SDS011;52512;47.650;8.578;2022-09-06T10:10:25;5.00;;;4.03;;
65769;SDS011;52512;47.650;8.578;2022-09-06T10:15:48;9.17;;;4.03;;
65769;SDS011;52512;47.650;8.578;2022-09-06T10:18:17;4.00;;;3.70;;
65769;SDS011;52512;47.650;8.578;2022-09-06T10:21:05;5.70;;;4.03;;
65769;SDS011;52512;47.650;8.578;2022-09-06T10:29:13;20.43;;;4.13;;
65769;SDS011;52512;47.650;8.578;2022-09-06T10:32:06;5.50;;;4.10;;
65769;SDS011;52512;47.650;8.578;2022-09-06T10:34:41;9.67;;;4.77;;
65769;SDS011;52512;47.650;8.578;2022-09-06T10:40:10;8.33;;;4.17;;
65769;SDS011;52512;47.650;8.578;2022-09-06T10:42:45;9.90;;;4.50;;
65769;SDS011;52512;47.650;8.578;2022-09-06T10:48:04;10.60;;;4.43;;
65769;SDS011;52512;47.650;8.578;2022-09-06T10:50:51;13.10;;;4.77;;
65769;SDS011;52512;47.650;8.578;2022-09-06T10:53:36;5.53;;;3.93;;
65769;SDS011;52512;47.650;8.578;2022-09-06T10:56:21;8.03;;;4.40;;
65769;SDS011;52512;47.650;8.578;2022-09-06T10:59:35;7.90;;;3.27;;
65769;SDS011;52512;47.650;8.578;2022-09-06T11:01:47;5.97;;;4.20;;
65769;SDS011;52512;47.650;8.578;2022-09-06T11:04:36;11.97;;;4.53;;
65769;SDS011;52512;47.650;8.578;2022-09-06T11:07:06;4.20;;;3.90;;
65769;SDS011;52512;47.650;8.578;2022-09-06T11:09:45;6.77;;;3.90;;
65769;SDS011;52512;47.650;8.578;2022-09-06T11:12:30;7.77;;;4.63;;
65769;SDS011;52512;47.650;8.578;2022-09-06T11:15:03;7.00;;;5.17;;
65769;SDS011;52512;47.650;8.578;2022-09-06T11:26:13;13.27;;;4.57;;
65769;SDS011;52512;47.650;8.578;2022-09-06T11:28:59;5.50;;;3.03;;
65769;SDS011;52512;47.650;8.578;2022-09-06T11:31:33;9.37;;;4.33;;
65769;SDS011;52512;47.650;8.578;2022-09-06T11:34:19;9.93;;;4.17;;
65769;SDS011;52512;47.650;8.578;2022-09-06T11:37:19;8.80;;;4.23;;
65769;SDS011;52512;47.650;8.578;2022-09-06T11:40:01;4.70;;;3.40;;
65769;SDS011;52512;47.650;8.578;2022-09-06T11:45:16;5.30;;;4.17;;
65769;SDS011;52512;47.650;8.578;2022-09-06T11:51:08;5.40;;;4.00;;
65769;SDS011;52512;47.650;8.578;2022-09-06T11:56:28;13.10;;;4.40;;
65769;SDS011;52512;47.650;8.578;2022-09-06T12:02:33;4.50;;;3.47;;
65769;SDS011;52512;47.650;8.578;2022-09-06T12:07:31;7.93;;;4.00;;
65769;SDS011;52512;47.650;8.578;2022-09-06T12:10:40;7.73;;;3.67;;
65769;SDS011;52512;47.650;8.578;2022-09-06T12:12:53;8.00;;;3.60;;
65769;SDS011;52512;47.650;8.578;2022-09-06T12:15:28;13.90;;;4.33;;
65769;SDS011;52512;47.650;8.578;2022-09-06T12:17:58;8.83;;;4.77;;
65769;SDS011;52512;47.650;8.578;2022-09-06T12:25:59;11.43;;;4.00;;
65769;SDS011;52512;47.650;8.578;2022-09-06T12:31:24;4.70;;;4.00;;
65769;SDS011;52512;47.650;8.578;2022-09-06T12:33:53;6.30;;;4.00;;
65769;SDS011;52512;47.650;8.578;2022-09-06T12:36:24;10.70;;;4.83;;
65769;SDS011;52512;47.650;8.578;2022-09-06T12:41:40;10.70;;;4.80;;
65769;SDS011;52512;47.650;8.578;2022-09-06T12:44:09;12.10;;;4.33;;
65769;SDS011;52512;47.650;8.578;2022-09-06T12:46:37;12.00;;;4.30;;
65769;SDS011;52512;47.650;8.578;2022-09-06T12:49:11;13.83;;;5.77;;
65769;SDS011;52512;47.650;8.578;2022-09-06T12:51:44;6.13;;;4.10;;
65769;SDS011;52512;47.650;8.578;2022-09-06T12:54:23;10.80;;;3.70;;
65769;SDS011;52512;47.650;8.578;2022-09-06T12:56:52;6.63;;;2.77;;
65769;SDS011;52512;47.650;8.578;2022-09-06T12:59:34;5.03;;;2.90;;
65769;SDS011;52512;47.650;8.578;2022-09-06T13:02:03;23.93;;;2.97;;
65769;SDS011;52512;47.650;8.578;2022-09-06T13:07:09;2.90;;;2.23;;
65769;SDS011;52512;47.650;8.578;2022-09-06T13:09:41;4.40;;;2.80;;
65769;SDS011;52512;47.650;8.578;2022-09-06T13:15:03;3.60;;;2.10;;
65769;SDS011;52512;47.650;8.578;2022-09-06T13:17:35;3.50;;;2.57;;
65769;SDS011;52512;47.650;8.578;2022-09-06T13:20:10;7.13;;;3.00;;
65769;SDS011;52512;47.650;8.578;2022-09-06T13:23:04;2.73;;;2.30;;
65769;SDS011;52512;47.650;8.578;2022-09-06T13:25:34;7.63;;;2.80;;
65769;SDS011;52512;47.650;8.578;2022-09-06T13:28:36;4.57;;;2.23;;
65769;SDS011;52512;47.650;8.578;2022-09-06T13:33:43;2.23;;;2.03;;
65769;SDS011;52512;47.650;8.578;2022-09-06T13:41:01;4.30;;;2.40;;
65769;SDS011;52512;47.650;8.578;2022-09-06T13:43:29;4.43;;;1.90;;
65769;SDS011;52512;47.650;8.578;2022-09-06T13:46:09;2.30;;;2.07;;
65769;SDS011;52512;47.650;8.578;2022-09-06T13:48:35;2.93;;;2.33;;
65769;SDS011;52512;47.650;8.578;2022-09-06T13:51:04;2.30;;;1.93;;
65769;SDS011;52512;47.650;8.578;2022-09-06T13:53:32;8.53;;;2.73;;
65769;SDS011;52512;47.650;8.578;2022-09-06T13:55:58;3.97;;;2.50;;
65769;SDS011;52512;47.650;8.578;2022-09-06T13:58:30;2.40;;;2.20;;
65769;SDS011;52512;47.650;8.578;2022-09-06T14:00:55;5.80;;;2.87;;
65769;SDS011;52512;47.650;8.578;2022-09-06T14:03:27;6.20;;;2.30;;
65769;SDS011;52512;47.650;8.578;2022-09-06T14:05:55;4.03;;;2.30;;
65769;SDS011;52512;47.650;8.578;2022-09-06T14:08:21;3.37;;;2.57;;
65769;SDS011;52512;47.650;8.578;2022-09-06T14:10:51;2.53;;;2.33;;
65769;SDS011;52512;47.650;8.578;2022-09-06T14:13:17;3.30;;;2.33;;
65769;SDS011;52512;47.650;8.578;2022-09-06T14:15:44;3.30;;;2.60;;
65769;SDS011;52512;47.650;8.578;2022-09-06T14:18:11;3.63;;;1.50;;
65769;SDS011;52512;47.650;8.578;2022-09-06T14:20:37;2.47;;;2.10;;
65769;SDS011;52512;47.650;8.578;2022-09-06T14:23:03;2.33;;;2.23;;
65769;SDS011;52512;47.650;8.578;2022-09-06T14:25:29;13.27;;;2.40;;
65769;SDS011;52512;47.650;8.578;2022-09-06T14:27:55;4.10;;;2.10;;
65769;SDS011;52512;47.650;8.578;2022-09-06T14:30:20;5.40;;;2.50;;
65769;SDS011;52512;47.650;8.578;2022-09-06T14:32:46;1.63;;;1.53;;
65769;SDS011;52512;47.650;8.578;2022-09-06T14:35:12;3.17;;;1.73;;
65769;SDS011;52512;47.650;8.578;2022-09-06T14:37:37;5.53;;;2.23;;
65769;SDS011;52512;47.650;8.578;2022-09-06T14:40:03;1.97;;;1.83;;
65769;SDS011;52512;47.650;8.578;2022-09-06T14:42:30;3.53;;;1.80;;
65769;SDS011;52512;47.650;8.578;2022-09-06T14:44:56;2.17;;;1.93;;
65769;SDS011;52512;47.650;8.578;2022-09-06T14:47:21;8.20;;;1.73;;
65769;SDS011;52512;47.650;8.578;2022-09-06T14:49:47;2.60;;;2.33;;
65769;SDS011;52512;47.650;8.578;2022-09-06T14:52:13;4.37;;;1.97;;
65769;SDS011;52512;47.650;8.578;2022-09-06T14:54:39;2.70;;;1.70;;
65769;SDS011;52512;47.650;8.578;2022-09-06T14:57:06;3.23;;;1.77;;
65769;SDS011;52512;47.650;8.578;2022-09-06T14:59:33;6.33;;;1.50;;
65769;SDS011;52512;47.650;8.578;2022-09-06T15:01:59;1.87;;;1.73;;
65769;SDS011;52512;47.650;8.578;2022-09-06T15:04:25;2.13;;;1.80;;
65769;SDS011;52512;47.650;8.578;2022-09-06T15:06:51;2.50;;;1.90;;
65769;SDS011;52512;47.650;8.578;2022-09-06T15:09:19;6.30;;;2.20;;
65769;SDS011;52512;47.650;8.578;2022-09-06T15:11:49;2.70;;;2.30;;
65769;SDS011;52512;47.650;8.578;2022-09-06T15:14:27;4.60;;;1.67;;
65769;SDS011;52512;47.650;8.578;2022-09-06T15:16:56;3.60;;;2.40;;
65769;SDS011;52512;47.650;8.578;2022-09-06T15:19:27;14.53;;;1.70;;
65769;SDS011;52512;47.650;8.578;2022-09-06T15:21:54;2.60;;;1.27;;
65769;SDS011;52512;47.650;8.578;2022-09-06T15:24:25;5.03;;;1.40;;
65769;SDS011;52512;47.650;8.578;2022-09-06T15:26:51;1.80;;;1.37;;
65769;SDS011;52512;47.650;8.578;2022-09-06T15:29:21;2.40;;;1.70;;
65769;SDS011;52512;47.650;8.578;2022-09-06T15:31:48;1.70;;;1.60;;
65769;SDS011;52512;47.650;8.578;2022-09-06T15:34:35;5.67;;;2.00;;
65769;SDS011;52512;47.650;8.578;2022-09-06T15:37:10;5.07;;;1.83;;
65769;SDS011;52512;47.650;8.578;2022-09-06T15:39:35;16.00;;;2.23;;
65769;SDS011;52512;47.650;8.578;2022-09-06T15:42:07;4.87;;;2.17;;
65769;SDS011;52512;47.650;8.578;2022-09-06T15:44:33;2.40;;;1.40;;
65769;SDS011;52512;47.650;8.578;2022-09-06T15:47:20;3.13;;;1.63;;
65769;SDS011;52512;47.650;8.578;2022-09-06T15:49:47;2.83;;;1.60;;
65769;SDS011;52512;47.650;8.578;2022-09-06T15:52:14;2.13;;;1.37;;
65769;SDS011;52512;47.650;8.578;2022-09-06T15:54:58;4.73;;;2.33;;
65769;SDS011;52512;47.650;8.578;2022-09-06T16:01:16;1.87;;;1.73;;
65769;SDS011;52512;47.650;8.578;2022-09-06T16:03:48;6.47;;;1.97;;
65769;SDS011;52512;47.650;8.578;2022-09-06T16:06:22;3.30;;;1.50;;
65769;SDS011;52512;47.650;8.578;2022-09-06T16:09:07;1.43;;;1.33;;
65769;SDS011;52512;47.650;8.578;2022-09-06T16:11:35;3.60;;;1.40;;
65769;SDS011;52512;47.650;8.578;2022-09-06T16:14:11;2.20;;;1.70;;
65769;SDS011;52512;47.650;8.578;2022-09-06T16:16:38;4.90;;;2.40;;
65769;SDS011;52512;47.650;8.578;2022-09-06T16:19:05;4.23;;;2.53;;
65769;SDS011;52512;47.650;8.578;2022-09-06T16:21:33;2.87;;;2.20;;
65769;SDS011;52512;47.650;8.578;2022-09-06T16:24:01;2.00;;;1.90;;
65769;SDS011;52512;47.650;8.578;2022-09-06T16:26:31;3.03;;;1.90;;
65769;SDS011;52512;47.650;8.578;2022-09-06T16:28:58;1.53;;;1.43;;
65769;SDS011;52512;47.650;8.578;2022-09-06T16:31:24;6.70;;;1.67;;
65769;SDS011;52512;47.650;8.578;2022-09-06T16:33:50;1.60;;;1.50;;
65769;SDS011;52512;47.650;8.578;2022-09-06T16:36:18;3.70;;;1.23;;
65769;SDS011;52512;47.650;8.578;2022-09-06T16:38:45;1.93;;;1.70;;
65769;SDS011;52512;47.650;8.578;2022-09-06T16:41:12;2.20;;;2.00;;
65769;SDS011;52512;47.650;8.578;2022-09-06T16:43:42;9.77;;;2.47;;
65769;SDS011;52512;47.650;8.578;2022-09-06T16:46:09;14.03;;;2.00;;
65769;SDS011;52512;47.650;8.578;2022-09-06T16:48:38;1.70;;;1.60;;
65769;SDS011;52512;47.650;8.578;2022-09-06T16:53:52;3.53;;;1.50;;
65769;SDS011;52512;47.650;8.578;2022-09-06T16:56:20;1.80;;;1.70;;
65769;SDS011;52512;47.650;8.578;2022-09-06T16:59:02;9.40;;;1.87;;
65769;SDS011;52512;47.650;8.578;2022-09-06T17:01:29;7.50;;;1.90;;
65769;SDS011;52512;47.650;8.578;2022-09-06T17:04:04;2.27;;;1.70;;
65769;SDS011;52512;47.650;8.578;2022-09-06T17:06:31;2.23;;;2.00;;